Laguepe — 9HAI9 — position and weather

sailwx.info

Track history (hours):
 
Tides and Currents Weather Stations Pressure Air Temp Water Temp Dewpoint Dewpoint Depression Visibility Wind Speed Wind Dir Waves Ship Positions

Laguepe

Last reported at 2016-May-02 22:31 UTC. Time now 2016-May-02 23:14 UTC.
Position N 44°19' E 008°30'.

Length 81 m; draft 3.2 m.

Type: Cargo ship. MMSI: 256681000.

Date/timePositionNaut miles runAvg speedWind from/ knotsBaromVisibWave heightAir tempDewpointWater temp
2016-May-02 22:31N 44°19' E 008°30'0 0.0
2016-May-02 21:31N 44°19' E 008°30'0 0.0
2016-May-02 20:31N 44°19' E 008°30'0 0.0
2016-May-02 19:31N 44°19' E 008°30'0 0.0
2016-May-02 18:31N 44°19' E 008°30'0 0.0
2016-May-02 17:31N 44°19' E 008°30'0 0.0
2016-May-02 16:31N 44°19' E 008°30'0 0.0
2016-May-02 15:31N 44°19' E 008°30'0 0.0
2016-May-02 14:31N 44°19' E 008°30'0 0.0
2016-May-02 13:31N 44°19' E 008°30'1 0.9
2016-May-02 12:33N 44°19' E 008°31'8 8.0
2016-May-02 11:33N 44°11' E 008°30'56 7.9
2016-May-02 04:33N 43°33' E 007°33'9 7.9
2016-May-02 03:27N 43°27' E 007°24'7 7.7
2016-May-02 02:33N 43°23' E 007°16'95 7.0
2016-May-01 13:07N 43°14' E 005°07'5 8.6
2016-May-01 12:33N 43°17' E 005°02'9 8.7
2016-May-01 11:33N 43°24' E 004°54'4 4.3
2016-May-01 10:33N 43°23' E 004°49'2 1.7
2016-May-01 09:29N 43°24' E 004°46'19 8.6
2016-May-01 07:15N 43°42' E 004°38'  
2016-Apr-28 07:04N 43°23' E 004°49'2 4.2
2016-Apr-28 06:31N 43°23' E 004°52'7 7.8
2016-Apr-28 05:33N 43°19' E 005°00'4 3.5
2016-Apr-28 04:33N 43°17' E 005°04'6 6.0
2016-Apr-28 03:33N 43°22' E 004°58'4 4.5
2016-Apr-28 02:33N 43°18' E 005°01'5 4.5
2016-Apr-28 01:31N 43°14' E 005°06'86 5.0
2016-Apr-27 08:23N 43°17' E 007°04'6 6.9
2016-Apr-27 07:33N 43°20' E 007°10'6 5.7
2016-Apr-27 06:31N 43°23' E 007°17'5 5.3
2016-Apr-27 05:33N 43°27' E 007°22'5 4.9
2016-Apr-27 04:33N 43°30' E 007°27'5 4.6
2016-Apr-27 03:33N 43°32' E 007°33'5 4.6
2016-Apr-27 02:25N 43°36' E 007°38'56 5.6
2016-Apr-26 16:22N 44°17' E 008°31'2 0.2
2016-Apr-26 05:28N 44°19' E 008°30'6 6.1
2016-Apr-26 04:31N 44°13' E 008°31'60 7.5
2016-Apr-25 20:32N 43°31' E 007°32'8 8.1
2016-Apr-25 19:33N 43°26' E 007°22'8 7.8
2016-Apr-25 18:31N 43°22' E 007°13'91 7.6
2016-Apr-25 06:31N 43°12' E 005°08'9 9.2
2016-Apr-25 05:33N 43°18' E 005°00'8 8.0
2016-Apr-25 04:31N 43°23' E 004°51'2 0.2
2016-Apr-24 19:12N 43°23' E 004°48'0 0.0
2016-Apr-23 18:15N 43°23' E 004°48'13 1.6
2016-Apr-23 10:18N 43°34' E 004°41'  
Track history (hours):
 
Tides and Currents Weather Stations Pressure Air Temp Water Temp Dewpoint Dewpoint Depression Visibility Wind Speed Wind Dir Waves Ship Positions

Laguepe

Last reported at 2016-May-02 22:31 UTC. Time now 2016-May-02 23:14 UTC.
Position N 44°19' E 008°30'.

Length 81 m; draft 3.2 m.

Type: Cargo ship. MMSI: 256681000.

Date/timePositionNaut miles runAvg speedWind from/ knotsBaromVisibWave heightAir tempDewpointWater temp
2016-May-02 22:31N 44°19' E 008°30'0 0.0
2016-May-02 21:31N 44°19' E 008°30'0 0.0
2016-May-02 20:31N 44°19' E 008°30'0 0.0
2016-May-02 19:31N 44°19' E 008°30'0 0.0
2016-May-02 18:31N 44°19' E 008°30'0 0.0
2016-May-02 17:31N 44°19' E 008°30'0 0.0
2016-May-02 16:31N 44°19' E 008°30'0 0.0
2016-May-02 15:31N 44°19' E 008°30'0 0.0
2016-May-02 14:31N 44°19' E 008°30'0 0.0
2016-May-02 13:31N 44°19' E 008°30'1 0.9
2016-May-02 12:33N 44°19' E 008°31'8 8.0
2016-May-02 11:33N 44°11' E 008°30'56 7.9
2016-May-02 04:33N 43°33' E 007°33'9 7.9
2016-May-02 03:27N 43°27' E 007°24'7 7.7
2016-May-02 02:33N 43°23' E 007°16'95 7.0
2016-May-01 13:07N 43°14' E 005°07'5 8.6
2016-May-01 12:33N 43°17' E 005°02'9 8.7
2016-May-01 11:33N 43°24' E 004°54'4 4.3
2016-May-01 10:33N 43°23' E 004°49'2 1.7
2016-May-01 09:29N 43°24' E 004°46'19 8.6
2016-May-01 07:15N 43°42' E 004°38'  
2016-Apr-28 07:04N 43°23' E 004°49'2 4.2
2016-Apr-28 06:31N 43°23' E 004°52'7 7.8
2016-Apr-28 05:33N 43°19' E 005°00'4 3.5
2016-Apr-28 04:33N 43°17' E 005°04'6 6.0
2016-Apr-28 03:33N 43°22' E 004°58'4 4.5
2016-Apr-28 02:33N 43°18' E 005°01'5 4.5
2016-Apr-28 01:31N 43°14' E 005°06'86 5.0
2016-Apr-27 08:23N 43°17' E 007°04'6 6.9
2016-Apr-27 07:33N 43°20' E 007°10'6 5.7
2016-Apr-27 06:31N 43°23' E 007°17'5 5.3
2016-Apr-27 05:33N 43°27' E 007°22'5 4.9
2016-Apr-27 04:33N 43°30' E 007°27'5 4.6
2016-Apr-27 03:33N 43°32' E 007°33'5 4.6
2016-Apr-27 02:25N 43°36' E 007°38'56 5.6
2016-Apr-26 16:22N 44°17' E 008°31'2 0.2
2016-Apr-26 05:28N 44°19' E 008°30'6 6.1
2016-Apr-26 04:31N 44°13' E 008°31'60 7.5
2016-Apr-25 20:32N 43°31' E 007°32'8 8.1
2016-Apr-25 19:33N 43°26' E 007°22'8 7.8
2016-Apr-25 18:31N 43°22' E 007°13'91 7.6
2016-Apr-25 06:31N 43°12' E 005°08'9 9.2
2016-Apr-25 05:33N 43°18' E 005°00'8 8.0
2016-Apr-25 04:31N 43°23' E 004°51'2 0.2
2016-Apr-24 19:12N 43°23' E 004°48'0 0.0
2016-Apr-23 18:15N 43°23' E 004°48'13 1.6
2016-Apr-23 10:18N 43°34' E 004°41'  

Dump ship's entire track history